GLD1043 SBGR-SCEL
Flight info
| Callsign | GLD1043 |
|---|---|
| Flight time | 3h 48m |
| Altitude | 36000 |
| Route | UBSOD UZ38 ARTUT UM400 KILIP/N0478F380 UM400 CBA UZ105 UMKAL UMKAL7C |
| Aircraft | B77W/H-SDE1E2E3FGHIJ2J3J4J5M1RWXYZ/LB1D1 |
Departure
| Time | 2026-05-06 14:19 |
|---|---|
| Airport | São Paulo/Guarulhos–Governor André Franco Montoro International Airport (SBGR) |
Arrival
| Time | 2026-05-06 18:08 |
|---|---|
| Airport | Comodoro Arturo Merino Benítez International Airport (SCEL) |
| Time | Latitude | Longitude | Altitude | Speed | Heading |
|---|---|---|---|---|---|
| 2026-05-06 13:50 | -23.42579 | -46.47319 | 2466 ft | 0 kts | 254° |
| 2026-05-06 14:09 | -23.42575 | -46.47304 | 2469 ft | 3 kts | 250° |
| 2026-05-06 14:09 | -23.42565 | -46.47280 | 2467 ft | 3 kts | 241° |
| 2026-05-06 14:10 | -23.42553 | -46.47258 | 2467 ft | 3 kts | 231° |
| 2026-05-06 14:10 | -23.42537 | -46.47240 | 2466 ft | 3 kts | 215° |
| 2026-05-06 14:10 | -23.42517 | -46.47229 | 2466 ft | 3 kts | 181° |
| 2026-05-06 14:10 | -23.42514 | -46.47227 | 2466 ft | 3 kts | 163° |
| 2026-05-06 14:11 | -23.42529 | -46.47223 | 2468 ft | 0 kts | 163° |
| 2026-05-06 14:13 | -23.42547 | -46.47217 | 2466 ft | 5 kts | 163° |
| 2026-05-06 14:13 | -23.42587 | -46.47204 | 2471 ft | 7 kts | 163° |
| 2026-05-06 14:14 | -23.42643 | -46.47186 | 2468 ft | 9 kts | 163° |
| 2026-05-06 14:14 | -23.42706 | -46.47165 | 2471 ft | 10 kts | 163° |
| 2026-05-06 14:14 | -23.42777 | -46.47142 | 2467 ft | 11 kts | 163° |
| 2026-05-06 14:14 | -23.42838 | -46.47136 | 2471 ft | 8 kts | 211° |
| 2026-05-06 14:15 | -23.42863 | -46.47194 | 2467 ft | 10 kts | 252° |
| 2026-05-06 14:15 | -23.42885 | -46.47275 | 2470 ft | 12 kts | 254° |
| 2026-05-06 14:15 | -23.42910 | -46.47374 | 2471 ft | 15 kts | 254° |
| 2026-05-06 14:15 | -23.42941 | -46.47488 | 2472 ft | 17 kts | 253° |
| 2026-05-06 14:16 | -23.42977 | -46.47617 | 2467 ft | 19 kts | 253° |
| 2026-05-06 14:16 | -23.43015 | -46.47756 | 2471 ft | 19 kts | 253° |
| 2026-05-06 14:16 | -23.43054 | -46.47896 | 2472 ft | 19 kts | 253° |
| 2026-05-06 14:16 | -23.43092 | -46.48035 | 2470 ft | 18 kts | 253° |
| 2026-05-06 14:17 | -23.43127 | -46.48168 | 2469 ft | 18 kts | 254° |
| 2026-05-06 14:17 | -23.43160 | -46.48294 | 2468 ft | 16 kts | 254° |
| 2026-05-06 14:17 | -23.43188 | -46.48383 | 2468 ft | 9 kts | 226° |
| 2026-05-06 14:17 | -23.43253 | -46.48380 | 2467 ft | 11 kts | 165° |
| 2026-05-06 14:18 | -23.43330 | -46.48357 | 2470 ft | 13 kts | 165° |
| 2026-05-06 14:18 | -23.43402 | -46.48335 | 2471 ft | 8 kts | 158° |
| 2026-05-06 14:18 | -23.43414 | -46.48287 | 2470 ft | 8 kts | 78° |
| 2026-05-06 14:18 | -23.43373 | -46.48125 | 2470 ft | 52 kts | 73° |
| 2026-05-06 14:19 | -23.43196 | -46.47482 | 2467 ft | 123 kts | 73° |
| 2026-05-06 14:19 | -23.42895 | -46.46381 | 2472 ft | 178 kts | 73° |
| 2026-05-06 14:19 | -23.42547 | -46.45026 | 2937 ft | 185 kts | 73° |
| 2026-05-06 14:19 | -23.42180 | -46.43651 | 3512 ft | 192 kts | 72° |
| 2026-05-06 14:20 | -23.41765 | -46.42269 | 4164 ft | 194 kts | 72° |
| 2026-05-06 14:20 | -23.41328 | -46.40807 | 4462 ft | 214 kts | 72° |
| 2026-05-06 14:20 | -23.40843 | -46.39176 | 4704 ft | 241 kts | 72° |
| 2026-05-06 14:20 | -23.40305 | -46.37365 | 5127 ft | 257 kts | 74° |
| 2026-05-06 14:21 | -23.40206 | -46.35407 | 5654 ft | 266 kts | 105° |
| 2026-05-06 14:21 | -23.40837 | -46.33503 | 6352 ft | 271 kts | 110° |
| 2026-05-06 14:21 | -23.41482 | -46.31571 | 7218 ft | 272 kts | 109° |
| 2026-05-06 14:21 | -23.42118 | -46.29631 | 8048 ft | 273 kts | 109° |
| 2026-05-06 14:22 | -23.42784 | -46.27673 | 8724 ft | 277 kts | 114° |
| 2026-05-06 14:22 | -23.43969 | -46.25991 | 9299 ft | 288 kts | 142° |
| 2026-05-06 14:22 | -23.45815 | -46.25117 | 10050 ft | 296 kts | 170° |
| 2026-05-06 14:22 | -23.47879 | -46.25189 | 10659 ft | 302 kts | 189° |
| 2026-05-06 14:23 | -23.50023 | -46.25642 | 10884 ft | 327 kts | 190° |
| 2026-05-06 14:23 | -23.52305 | -46.26150 | 11056 ft | 349 kts | 193° |
| 2026-05-06 14:23 | -23.54566 | -46.27307 | 11232 ft | 373 kts | 218° |
| 2026-05-06 14:23 | -23.56211 | -46.29526 | 11801 ft | 385 kts | 244° |
| 2026-05-06 14:24 | -23.56995 | -46.32332 | 12499 ft | 389 kts | 258° |
| 2026-05-06 14:24 | -23.57532 | -46.35253 | 13246 ft | 397 kts | 258° |
| 2026-05-06 14:24 | -23.58080 | -46.38210 | 14154 ft | 400 kts | 258° |
| 2026-05-06 14:24 | -23.58645 | -46.41193 | 14987 ft | 402 kts | 257° |
| 2026-05-06 14:25 | -23.59223 | -46.44184 | 15818 ft | 404 kts | 257° |
| 2026-05-06 14:25 | -23.59815 | -46.47193 | 16624 ft | 408 kts | 256° |
| 2026-05-06 14:25 | -23.60417 | -46.50233 | 17441 ft | 412 kts | 256° |
| 2026-05-06 14:25 | -23.61011 | -46.53306 | 18246 ft | 416 kts | 258° |
| 2026-05-06 14:26 | -23.61476 | -46.56397 | 18984 ft | 420 kts | 260° |
| 2026-05-06 14:26 | -23.61909 | -46.59599 | 19695 ft | 423 kts | 259° |
| 2026-05-06 14:26 | -23.62349 | -46.62739 | 20406 ft | 425 kts | 259° |
| 2026-05-06 14:26 | -23.62990 | -46.65887 | 21020 ft | 426 kts | 248° |
| 2026-05-06 14:27 | -23.64418 | -46.68699 | 21550 ft | 426 kts | 234° |
| 2026-05-06 14:27 | -23.66133 | -46.71364 | 22153 ft | 431 kts | 235° |
| 2026-05-06 14:27 | -23.67788 | -46.74106 | 22879 ft | 433 kts | 236° |
| 2026-05-06 14:27 | -23.69407 | -46.76890 | 23606 ft | 434 kts | 237° |
| 2026-05-06 14:28 | -23.71245 | -46.79504 | 24056 ft | 438 kts | 223° |
| 2026-05-06 14:28 | -23.73759 | -46.81385 | 24507 ft | 437 kts | 208° |
| 2026-05-06 14:28 | -23.76427 | -46.82931 | 25021 ft | 440 kts | 209° |
| 2026-05-06 14:28 | -23.79104 | -46.84565 | 25694 ft | 440 kts | 210° |
| 2026-05-06 14:29 | -23.81752 | -46.86222 | 26422 ft | 437 kts | 210° |
| 2026-05-06 14:29 | -23.84382 | -46.87885 | 27082 ft | 437 kts | 210° |
| 2026-05-06 14:29 | -23.87012 | -46.89553 | 27696 ft | 437 kts | 210° |
| 2026-05-06 14:29 | -23.89650 | -46.91226 | 28267 ft | 439 kts | 210° |
| 2026-05-06 14:30 | -23.92303 | -46.92907 | 28845 ft | 440 kts | 210° |
| 2026-05-06 14:30 | -23.94959 | -46.94588 | 29394 ft | 441 kts | 210° |
| 2026-05-06 14:30 | -23.97617 | -46.96269 | 29927 ft | 441 kts | 209° |
| 2026-05-06 14:30 | -24.00244 | -46.97931 | 30438 ft | 441 kts | 209° |
| 2026-05-06 14:31 | -24.02889 | -46.99605 | 30997 ft | 438 kts | 209° |
| 2026-05-06 14:31 | -24.05520 | -47.01272 | 31556 ft | 435 kts | 210° |
| 2026-05-06 14:31 | -24.08125 | -47.02923 | 32093 ft | 432 kts | 210° |
| 2026-05-06 14:31 | -24.10724 | -47.04570 | 32590 ft | 430 kts | 210° |
| 2026-05-06 14:32 | -24.13319 | -47.06215 | 33077 ft | 429 kts | 210° |
| 2026-05-06 14:32 | -24.15895 | -47.07851 | 33558 ft | 427 kts | 210° |
| 2026-05-06 14:32 | -24.18464 | -47.09483 | 34087 ft | 425 kts | 210° |
| 2026-05-06 14:32 | -24.21016 | -47.11104 | 34480 ft | 424 kts | 210° |
| 2026-05-06 14:33 | -24.23574 | -47.12729 | 34893 ft | 421 kts | 210° |
| 2026-05-06 14:33 | -24.26094 | -47.14330 | 35388 ft | 416 kts | 210° |
| 2026-05-06 14:33 | -24.28564 | -47.15955 | 35868 ft | 412 kts | 212° |
| 2026-05-06 14:33 | -24.30980 | -47.17622 | 36210 ft | 411 kts | 212° |
| 2026-05-06 14:34 | -24.35793 | -47.21008 | 36167 ft | 413 kts | 213° |
| 2026-05-06 14:34 | -24.40602 | -47.24386 | 36182 ft | 408 kts | 212° |
| 2026-05-06 14:35 | -24.45382 | -47.27721 | 36181 ft | 406 kts | 212° |
| 2026-05-06 14:35 | -24.50150 | -47.31042 | 36192 ft | 405 kts | 212° |
| 2026-05-06 14:36 | -24.54924 | -47.34368 | 36182 ft | 406 kts | 213° |
| 2026-05-06 14:36 | -24.59709 | -47.37706 | 36182 ft | 407 kts | 213° |
| 2026-05-06 14:37 | -24.64470 | -47.41031 | 36178 ft | 409 kts | 213° |
| 2026-05-06 14:37 | -24.69283 | -47.44394 | 36176 ft | 410 kts | 213° |
| 2026-05-06 14:38 | -24.74098 | -47.47763 | 36179 ft | 411 kts | 213° |
| 2026-05-06 14:38 | -24.78927 | -47.51144 | 36179 ft | 411 kts | 213° |
| 2026-05-06 14:39 | -24.83727 | -47.54508 | 36180 ft | 411 kts | 213° |
| 2026-05-06 14:39 | -24.88553 | -47.57893 | 36178 ft | 411 kts | 213° |
| 2026-05-06 14:40 | -24.93385 | -47.61286 | 36168 ft | 411 kts | 213° |
| 2026-05-06 14:40 | -24.98212 | -47.64678 | 36174 ft | 411 kts | 213° |
| 2026-05-06 14:41 | -25.03040 | -47.68075 | 36178 ft | 411 kts | 213° |
| 2026-05-06 14:41 | -25.07874 | -47.71479 | 36174 ft | 411 kts | 213° |
| 2026-05-06 14:42 | -25.11882 | -47.74304 | 36190 ft | 411 kts | 213° |
| 2026-05-06 14:42 | -25.17495 | -47.78264 | 36178 ft | 412 kts | 213° |
| 2026-05-06 14:43 | -25.21546 | -47.81125 | 36168 ft | 412 kts | 213° |
| 2026-05-06 14:43 | -25.26339 | -47.84513 | 36174 ft | 412 kts | 213° |
| 2026-05-06 14:44 | -25.31166 | -47.87928 | 36177 ft | 412 kts | 213° |
| 2026-05-06 14:45 | -25.38398 | -47.93072 | 36179 ft | 411 kts | 213° |
| 2026-05-06 14:45 | -25.43211 | -47.96504 | 36182 ft | 411 kts | 213° |
| 2026-05-06 14:46 | -25.48027 | -47.99939 | 36178 ft | 412 kts | 214° |
| 2026-05-06 14:46 | -25.52840 | -48.03376 | 36174 ft | 411 kts | 214° |
| 2026-05-06 14:47 | -25.57650 | -48.06813 | 36174 ft | 411 kts | 214° |
| 2026-05-06 14:47 | -25.61893 | -48.10945 | 36175 ft | 410 kts | 228° |
| 2026-05-06 14:48 | -25.65250 | -48.16066 | 36170 ft | 414 kts | 239° |
| 2026-05-06 14:48 | -25.67715 | -48.21850 | 36172 ft | 415 kts | 242° |
| 2026-05-06 14:49 | -25.70128 | -48.27667 | 36169 ft | 415 kts | 241° |
| 2026-05-06 14:49 | -25.72565 | -48.33471 | 36169 ft | 414 kts | 241° |
| 2026-05-06 14:50 | -25.75002 | -48.39232 | 36174 ft | 414 kts | 241° |
| 2026-05-06 14:50 | -25.77454 | -48.45025 | 36167 ft | 414 kts | 241° |
| 2026-05-06 14:51 | -25.79897 | -48.50807 | 36173 ft | 413 kts | 241° |
| 2026-05-06 14:51 | -25.82320 | -48.56551 | 36172 ft | 413 kts | 241° |
| 2026-05-06 14:52 | -25.84757 | -48.62335 | 36174 ft | 413 kts | 241° |
| 2026-05-06 14:52 | -25.87191 | -48.68120 | 36180 ft | 413 kts | 242° |
| 2026-05-06 14:53 | -25.89606 | -48.73855 | 36195 ft | 412 kts | 241° |
| 2026-05-06 14:53 | -25.92038 | -48.79624 | 36188 ft | 412 kts | 242° |
| 2026-05-06 14:54 | -25.94422 | -48.85433 | 36205 ft | 414 kts | 242° |
| 2026-05-06 14:54 | -25.96827 | -48.91274 | 36185 ft | 414 kts | 242° |
| 2026-05-06 14:55 | -25.99229 | -48.97064 | 36187 ft | 411 kts | 242° |
| 2026-05-06 14:55 | -26.01617 | -49.02838 | 36189 ft | 411 kts | 242° |
| 2026-05-06 14:56 | -26.04014 | -49.08605 | 36193 ft | 411 kts | 242° |
| 2026-05-06 14:56 | -26.06404 | -49.14348 | 36203 ft | 411 kts | 242° |
| 2026-05-06 14:57 | -26.08801 | -49.20124 | 36198 ft | 411 kts | 242° |
| 2026-05-06 14:57 | -26.11199 | -49.25909 | 36196 ft | 411 kts | 242° |
| 2026-05-06 14:58 | -26.13607 | -49.31634 | 36193 ft | 410 kts | 242° |
| 2026-05-06 14:58 | -26.16021 | -49.37392 | 36203 ft | 410 kts | 242° |
| 2026-05-06 14:59 | -26.18400 | -49.43179 | 36204 ft | 410 kts | 242° |
| 2026-05-06 14:59 | -26.20777 | -49.48961 | 36199 ft | 410 kts | 242° |
| 2026-05-06 15:00 | -26.23158 | -49.54748 | 36202 ft | 410 kts | 242° |
| 2026-05-06 15:00 | -26.25503 | -49.60509 | 36210 ft | 411 kts | 243° |
| 2026-05-06 15:01 | -26.27851 | -49.66318 | 36205 ft | 411 kts | 243° |
| 2026-05-06 15:01 | -26.30201 | -49.72134 | 36210 ft | 412 kts | 243° |
| 2026-05-06 15:02 | -26.32552 | -49.77955 | 36203 ft | 412 kts | 243° |
| 2026-05-06 15:02 | -26.34909 | -49.83777 | 36207 ft | 412 kts | 243° |
| 2026-05-06 15:03 | -26.37280 | -49.89552 | 36206 ft | 412 kts | 242° |
| 2026-05-06 15:03 | -26.39666 | -49.95363 | 36208 ft | 412 kts | 243° |
| 2026-05-06 15:04 | -26.42051 | -50.01186 | 36207 ft | 412 kts | 243° |
| 2026-05-06 15:04 | -26.44426 | -50.06999 | 36205 ft | 412 kts | 243° |
| 2026-05-06 15:05 | -26.46784 | -50.12781 | 36203 ft | 411 kts | 243° |
| 2026-05-06 15:05 | -26.49152 | -50.18597 | 36207 ft | 411 kts | 243° |
| 2026-05-06 15:06 | -26.51517 | -50.24409 | 36215 ft | 410 kts | 243° |
| 2026-05-06 15:06 | -26.53878 | -50.30226 | 36208 ft | 410 kts | 243° |
| 2026-05-06 15:07 | -26.56214 | -50.35984 | 36210 ft | 410 kts | 243° |
| 2026-05-06 15:07 | -26.58531 | -50.41815 | 36213 ft | 410 kts | 244° |
| 2026-05-06 15:08 | -26.60829 | -50.47667 | 36212 ft | 410 kts | 244° |
| 2026-05-06 15:08 | -26.63112 | -50.53463 | 36215 ft | 410 kts | 244° |
| 2026-05-06 15:09 | -26.65442 | -50.59288 | 36218 ft | 410 kts | 243° |
| 2026-05-06 15:09 | -26.67800 | -50.65105 | 36215 ft | 410 kts | 243° |
| 2026-05-06 15:10 | -26.70135 | -50.70892 | 36205 ft | 410 kts | 244° |
| 2026-05-06 15:10 | -26.72477 | -50.76714 | 36207 ft | 410 kts | 244° |
| 2026-05-06 15:11 | -26.74812 | -50.82527 | 36208 ft | 410 kts | 244° |
| 2026-05-06 15:11 | -26.77145 | -50.88361 | 36219 ft | 410 kts | 244° |
| 2026-05-06 15:12 | -26.79469 | -50.94197 | 36207 ft | 410 kts | 244° |
| 2026-05-06 15:12 | -26.81790 | -51.00035 | 36196 ft | 410 kts | 244° |
| 2026-05-06 15:13 | -26.84106 | -51.05868 | 36194 ft | 409 kts | 244° |
| 2026-05-06 15:13 | -26.86404 | -51.11662 | 36192 ft | 409 kts | 244° |
| 2026-05-06 15:14 | -26.88711 | -51.17486 | 36184 ft | 409 kts | 244° |
| 2026-05-06 15:14 | -26.91015 | -51.23313 | 36178 ft | 409 kts | 244° |
| 2026-05-06 15:15 | -26.93315 | -51.29135 | 36180 ft | 409 kts | 244° |
| 2026-05-06 15:15 | -26.95603 | -51.34940 | 36175 ft | 409 kts | 244° |
| 2026-05-06 15:16 | -26.97903 | -51.40779 | 36177 ft | 409 kts | 244° |
| 2026-05-06 15:16 | -27.00203 | -51.46626 | 36178 ft | 409 kts | 244° |
| 2026-05-06 15:17 | -27.02497 | -51.52469 | 36174 ft | 409 kts | 244° |
| 2026-05-06 15:17 | -27.04785 | -51.58306 | 36156 ft | 409 kts | 245° |
| 2026-05-06 15:18 | -27.07071 | -51.64146 | 36162 ft | 408 kts | 245° |
| 2026-05-06 15:18 | -27.09353 | -51.69982 | 36160 ft | 408 kts | 245° |
| 2026-05-06 15:19 | -27.11632 | -51.75824 | 36157 ft | 408 kts | 245° |
| 2026-05-06 15:19 | -27.13893 | -51.81628 | 36148 ft | 407 kts | 245° |
| 2026-05-06 15:20 | -27.16162 | -51.87454 | 36150 ft | 408 kts | 245° |
| 2026-05-06 15:20 | -27.18426 | -51.93303 | 36138 ft | 408 kts | 245° |
| 2026-05-06 15:21 | -27.20677 | -51.99157 | 36141 ft | 408 kts | 245° |
| 2026-05-06 15:21 | -27.22931 | -52.05013 | 36142 ft | 408 kts | 245° |
| 2026-05-06 15:22 | -27.25189 | -52.10865 | 36137 ft | 408 kts | 245° |
| 2026-05-06 15:22 | -27.27435 | -52.16692 | 36136 ft | 409 kts | 245° |
| 2026-05-06 15:23 | -27.29695 | -52.22565 | 36139 ft | 409 kts | 245° |
| 2026-05-06 15:23 | -27.31953 | -52.28442 | 36126 ft | 409 kts | 245° |
| 2026-05-06 15:24 | -27.34205 | -52.34315 | 36130 ft | 408 kts | 246° |
| 2026-05-06 15:24 | -27.36454 | -52.40189 | 36139 ft | 408 kts | 246° |
| 2026-05-06 15:25 | -27.38682 | -52.46019 | 36144 ft | 409 kts | 246° |
| 2026-05-06 15:25 | -27.40928 | -52.51898 | 36159 ft | 409 kts | 246° |
| 2026-05-06 15:26 | -27.43175 | -52.57790 | 36125 ft | 409 kts | 246° |
| 2026-05-06 15:26 | -27.45412 | -52.63669 | 36121 ft | 407 kts | 246° |
| 2026-05-06 15:27 | -27.47639 | -52.69533 | 36128 ft | 407 kts | 246° |
| 2026-05-06 15:27 | -27.49864 | -52.75399 | 36120 ft | 408 kts | 246° |
| 2026-05-06 15:28 | -27.52074 | -52.81232 | 36114 ft | 407 kts | 246° |
| 2026-05-06 15:28 | -27.54289 | -52.87098 | 36110 ft | 406 kts | 246° |
| 2026-05-06 15:29 | -27.56500 | -52.92960 | 36114 ft | 406 kts | 246° |
| 2026-05-06 15:29 | -27.58704 | -52.98816 | 36108 ft | 406 kts | 246° |
| 2026-05-06 15:30 | -27.60909 | -53.04677 | 36112 ft | 406 kts | 247° |
| 2026-05-06 15:30 | -27.63116 | -53.10544 | 36113 ft | 406 kts | 247° |
| 2026-05-06 15:31 | -27.64950 | -53.15425 | 36108 ft | 406 kts | 247° |
| 2026-05-06 15:31 | -27.67155 | -53.21305 | 36107 ft | 407 kts | 247° |
| 2026-05-06 15:32 | -27.70457 | -53.30126 | 36106 ft | 406 kts | 247° |
| 2026-05-06 15:32 | -27.72652 | -53.36002 | 36104 ft | 406 kts | 247° |
| 2026-05-06 15:33 | -27.74845 | -53.41883 | 36104 ft | 407 kts | 247° |
| 2026-05-06 15:33 | -27.77038 | -53.47772 | 36098 ft | 407 kts | 247° |
| 2026-05-06 15:34 | -27.79228 | -53.53662 | 36100 ft | 407 kts | 247° |
| 2026-05-06 15:34 | -27.81416 | -53.59554 | 36094 ft | 407 kts | 247° |
| 2026-05-06 15:35 | -27.83585 | -53.65405 | 36092 ft | 407 kts | 247° |
| 2026-05-06 15:35 | -27.85772 | -53.71316 | 36094 ft | 406 kts | 247° |
| 2026-05-06 15:36 | -27.87951 | -53.77211 | 36092 ft | 406 kts | 248° |
| 2026-05-06 15:36 | -27.90116 | -53.83080 | 36089 ft | 406 kts | 248° |
| 2026-05-06 15:37 | -27.92289 | -53.88978 | 36078 ft | 406 kts | 248° |
| 2026-05-06 15:37 | -27.94457 | -53.94873 | 36078 ft | 406 kts | 248° |
| 2026-05-06 15:38 | -27.96627 | -54.00781 | 36077 ft | 406 kts | 248° |
| 2026-05-06 15:38 | -27.98792 | -54.06686 | 36070 ft | 406 kts | 248° |
| 2026-05-06 15:39 | -28.00951 | -54.12584 | 36070 ft | 406 kts | 248° |
| 2026-05-06 15:39 | -28.03111 | -54.18492 | 36059 ft | 406 kts | 248° |
| 2026-05-06 15:40 | -28.05265 | -54.24396 | 36064 ft | 405 kts | 248° |
| 2026-05-06 15:40 | -28.07404 | -54.30264 | 36065 ft | 405 kts | 248° |
| 2026-05-06 15:41 | -28.09553 | -54.36173 | 36057 ft | 406 kts | 248° |
| 2026-05-06 15:41 | -28.11701 | -54.42085 | 36059 ft | 406 kts | 248° |
| 2026-05-06 15:42 | -28.13844 | -54.47997 | 36053 ft | 405 kts | 248° |
| 2026-05-06 15:42 | -28.15984 | -54.53908 | 36061 ft | 405 kts | 249° |
| 2026-05-06 15:43 | -28.18109 | -54.59788 | 36049 ft | 405 kts | 249° |
| 2026-05-06 15:43 | -28.20242 | -54.65697 | 36042 ft | 405 kts | 249° |
| 2026-05-06 15:44 | -28.22372 | -54.71607 | 36039 ft | 404 kts | 249° |
| 2026-05-06 15:44 | -28.24498 | -54.77506 | 36038 ft | 404 kts | 249° |
| 2026-05-06 15:45 | -28.26622 | -54.83398 | 36037 ft | 404 kts | 249° |
| 2026-05-06 15:45 | -28.28746 | -54.89300 | 36034 ft | 403 kts | 249° |
| 2026-05-06 15:46 | -28.30852 | -54.95164 | 36038 ft | 403 kts | 249° |
| 2026-05-06 15:46 | -28.32973 | -55.01080 | 36032 ft | 404 kts | 249° |
| 2026-05-06 15:47 | -28.35092 | -55.07000 | 36028 ft | 404 kts | 249° |
| 2026-05-06 15:47 | -28.37193 | -55.12879 | 36025 ft | 405 kts | 249° |
| 2026-05-06 15:48 | -28.39311 | -55.18815 | 36020 ft | 405 kts | 249° |
| 2026-05-06 15:48 | -28.41432 | -55.24769 | 36018 ft | 405 kts | 249° |
| 2026-05-06 15:49 | -28.43533 | -55.30678 | 36021 ft | 405 kts | 249° |
| 2026-05-06 15:49 | -28.45644 | -55.36624 | 36021 ft | 405 kts | 249° |
| 2026-05-06 15:50 | -28.47753 | -55.42574 | 36011 ft | 406 kts | 249° |
| 2026-05-06 15:50 | -28.49858 | -55.48521 | 36001 ft | 405 kts | 249° |
| 2026-05-06 15:51 | -28.51960 | -55.54469 | 36003 ft | 405 kts | 250° |
| 2026-05-06 15:51 | -28.54058 | -55.60417 | 36004 ft | 405 kts | 250° |
| 2026-05-06 15:52 | -28.56155 | -55.66374 | 36003 ft | 405 kts | 250° |
| 2026-05-06 15:52 | -28.58223 | -55.72292 | 35995 ft | 405 kts | 250° |
| 2026-05-06 15:53 | -28.60304 | -55.78262 | 35998 ft | 405 kts | 250° |
| 2026-05-06 15:53 | -28.62382 | -55.84230 | 35999 ft | 405 kts | 250° |
| 2026-05-06 15:54 | -28.64459 | -55.90204 | 35998 ft | 406 kts | 250° |
| 2026-05-06 15:54 | -28.66536 | -55.96188 | 35989 ft | 406 kts | 250° |
| 2026-05-06 15:55 | -28.68599 | -56.02143 | 35987 ft | 406 kts | 250° |
| 2026-05-06 15:55 | -28.70670 | -56.08129 | 35984 ft | 406 kts | 250° |
| 2026-05-06 15:56 | -28.72741 | -56.14122 | 36004 ft | 406 kts | 250° |
| 2026-05-06 15:56 | -28.74870 | -56.20098 | 35976 ft | 407 kts | 250° |
| 2026-05-06 15:57 | -28.77031 | -56.26054 | 35978 ft | 407 kts | 250° |
| 2026-05-06 15:57 | -28.79183 | -56.32014 | 35976 ft | 406 kts | 250° |
| 2026-05-06 15:58 | -28.81313 | -56.37945 | 35991 ft | 406 kts | 250° |
| 2026-05-06 15:58 | -28.83450 | -56.43909 | 35980 ft | 406 kts | 250° |
| 2026-05-06 15:59 | -28.85586 | -56.49880 | 35969 ft | 406 kts | 250° |
| 2026-05-06 15:59 | -28.87716 | -56.55844 | 35966 ft | 406 kts | 250° |
| 2026-05-06 16:00 | -28.89838 | -56.61814 | 35971 ft | 406 kts | 251° |
| 2026-05-06 16:00 | -28.91946 | -56.67767 | 35970 ft | 406 kts | 251° |
| 2026-05-06 16:01 | -28.94060 | -56.73746 | 35969 ft | 406 kts | 251° |
| 2026-05-06 16:01 | -28.96172 | -56.79725 | 35969 ft | 406 kts | 251° |
| 2026-05-06 16:02 | -28.98281 | -56.85708 | 35969 ft | 406 kts | 251° |
| 2026-05-06 16:02 | -29.00387 | -56.91689 | 35963 ft | 406 kts | 251° |
| 2026-05-06 16:03 | -29.02489 | -56.97671 | 35965 ft | 405 kts | 251° |
| 2026-05-06 16:03 | -29.04574 | -57.03615 | 35964 ft | 405 kts | 251° |
| 2026-05-06 16:04 | -29.06672 | -57.09604 | 35959 ft | 405 kts | 251° |
| 2026-05-06 16:04 | -29.08766 | -57.15592 | 35960 ft | 405 kts | 251° |
| 2026-05-06 16:05 | -29.10859 | -57.21588 | 35951 ft | 405 kts | 251° |
| 2026-05-06 16:05 | -29.12946 | -57.27576 | 35951 ft | 405 kts | 251° |
| 2026-05-06 16:06 | -29.15029 | -57.33565 | 35951 ft | 405 kts | 251° |
| 2026-05-06 16:06 | -29.17115 | -57.39570 | 35954 ft | 405 kts | 251° |
| 2026-05-06 16:07 | -29.19194 | -57.45566 | 35949 ft | 405 kts | 252° |
| 2026-05-06 16:07 | -29.21270 | -57.51564 | 35946 ft | 405 kts | 252° |
| 2026-05-06 16:08 | -29.23334 | -57.57537 | 35940 ft | 405 kts | 252° |
| 2026-05-06 16:08 | -29.25424 | -57.63529 | 35938 ft | 405 kts | 251° |
| 2026-05-06 16:09 | -29.27648 | -57.69478 | 35948 ft | 406 kts | 250° |
| 2026-05-06 16:09 | -29.29886 | -57.75416 | 35932 ft | 406 kts | 251° |
| 2026-05-06 16:10 | -29.32093 | -57.81323 | 35930 ft | 405 kts | 251° |
| 2026-05-06 16:10 | -29.34300 | -57.87262 | 35932 ft | 405 kts | 251° |
| 2026-05-06 16:11 | -29.36502 | -57.93201 | 35939 ft | 404 kts | 251° |
| 2026-05-06 16:11 | -29.38701 | -57.99139 | 35921 ft | 405 kts | 251° |
| 2026-05-06 16:12 | -29.40899 | -58.05085 | 35931 ft | 404 kts | 251° |
| 2026-05-06 16:12 | -29.43023 | -58.11018 | 35920 ft | 403 kts | 253° |
| 2026-05-06 16:13 | -29.44962 | -58.17063 | 35913 ft | 403 kts | 253° |
| 2026-05-06 16:13 | -29.46883 | -58.23118 | 35922 ft | 403 kts | 253° |
| 2026-05-06 16:14 | -29.48809 | -58.29124 | 35915 ft | 403 kts | 253° |
| 2026-05-06 16:14 | -29.50754 | -58.35165 | 35914 ft | 403 kts | 253° |
| 2026-05-06 16:15 | -29.52697 | -58.41200 | 35914 ft | 403 kts | 253° |
| 2026-05-06 16:15 | -29.54639 | -58.47244 | 35913 ft | 403 kts | 253° |
| 2026-05-06 16:16 | -29.56565 | -58.53248 | 35908 ft | 403 kts | 254° |
| 2026-05-06 16:16 | -29.58500 | -58.59294 | 35898 ft | 403 kts | 254° |
| 2026-05-06 16:17 | -29.60432 | -58.65340 | 35897 ft | 402 kts | 254° |
| 2026-05-06 16:17 | -29.62358 | -58.71376 | 35892 ft | 402 kts | 254° |
| 2026-05-06 16:18 | -29.64267 | -58.77372 | 35891 ft | 402 kts | 254° |
| 2026-05-06 16:18 | -29.65865 | -58.82400 | 35889 ft | 402 kts | 254° |
| 2026-05-06 16:19 | -29.67785 | -58.88448 | 35887 ft | 402 kts | 254° |
| 2026-05-06 16:19 | -29.69759 | -58.94466 | 35888 ft | 402 kts | 253° |
| 2026-05-06 16:20 | -29.71770 | -59.00481 | 35888 ft | 402 kts | 253° |
| 2026-05-06 16:20 | -29.73771 | -59.06488 | 35880 ft | 402 kts | 253° |
| 2026-05-06 16:21 | -29.75763 | -59.12502 | 35883 ft | 402 kts | 253° |
| 2026-05-06 16:21 | -29.77751 | -59.18519 | 35880 ft | 402 kts | 253° |
| 2026-05-06 16:22 | -29.79734 | -59.24536 | 35876 ft | 402 kts | 253° |
| 2026-05-06 16:22 | -29.81700 | -59.30511 | 35874 ft | 402 kts | 253° |
| 2026-05-06 16:23 | -29.83678 | -59.36532 | 35879 ft | 402 kts | 254° |
| 2026-05-06 16:23 | -29.85654 | -59.42559 | 35871 ft | 401 kts | 254° |
| 2026-05-06 16:24 | -29.87624 | -59.48576 | 35875 ft | 401 kts | 254° |
| 2026-05-06 16:24 | -29.89592 | -59.54600 | 35862 ft | 401 kts | 254° |
| 2026-05-06 16:25 | -29.91553 | -59.60612 | 35868 ft | 400 kts | 254° |
| 2026-05-06 16:25 | -29.93511 | -59.66626 | 35856 ft | 400 kts | 255° |
| 2026-05-06 16:26 | -29.95452 | -59.72602 | 35851 ft | 400 kts | 255° |
| 2026-05-06 16:26 | -29.97400 | -59.78606 | 35852 ft | 399 kts | 255° |
| 2026-05-06 16:27 | -29.99344 | -59.84611 | 35847 ft | 399 kts | 255° |
| 2026-05-06 16:27 | -30.01286 | -59.90617 | 35861 ft | 399 kts | 255° |
| 2026-05-06 16:28 | -30.03215 | -59.96597 | 35841 ft | 399 kts | 255° |
| 2026-05-06 16:28 | -30.05151 | -60.02608 | 35838 ft | 399 kts | 255° |
| 2026-05-06 16:29 | -30.07084 | -60.08621 | 35833 ft | 399 kts | 255° |
| 2026-05-06 16:29 | -30.09015 | -60.14638 | 35831 ft | 399 kts | 255° |
| 2026-05-06 16:30 | -30.10612 | -60.19622 | 35838 ft | 399 kts | 255° |
| 2026-05-06 16:30 | -30.12857 | -60.26644 | 35838 ft | 398 kts | 255° |
| 2026-05-06 16:31 | -30.14759 | -60.32606 | 35834 ft | 398 kts | 255° |
| 2026-05-06 16:31 | -30.16677 | -60.38622 | 35817 ft | 398 kts | 255° |
| 2026-05-06 16:32 | -30.18588 | -60.44633 | 35815 ft | 398 kts | 255° |
| 2026-05-06 16:32 | -30.20504 | -60.50670 | 35824 ft | 399 kts | 256° |
| 2026-05-06 16:33 | -30.22400 | -60.56656 | 35812 ft | 399 kts | 256° |
| 2026-05-06 16:34 | -30.25254 | -60.65689 | 35808 ft | 398 kts | 256° |
| 2026-05-06 16:34 | -30.27152 | -60.71706 | 35806 ft | 398 kts | 256° |
| 2026-05-06 16:35 | -30.29044 | -60.77719 | 35810 ft | 397 kts | 256° |
| 2026-05-06 16:35 | -30.30934 | -60.83738 | 35808 ft | 397 kts | 256° |
| 2026-05-06 16:36 | -30.32811 | -60.89725 | 35800 ft | 397 kts | 256° |
| 2026-05-06 16:36 | -30.34693 | -60.95738 | 35802 ft | 397 kts | 256° |
| 2026-05-06 16:37 | -30.36572 | -61.01755 | 35800 ft | 397 kts | 256° |
| 2026-05-06 16:37 | -30.38451 | -61.07777 | 35802 ft | 397 kts | 257° |
| 2026-05-06 16:38 | -30.40328 | -61.13798 | 35794 ft | 397 kts | 257° |
| 2026-05-06 16:38 | -30.42203 | -61.19819 | 35790 ft | 397 kts | 257° |
| 2026-05-06 16:39 | -30.44059 | -61.25789 | 35790 ft | 396 kts | 257° |
| 2026-05-06 16:39 | -30.45924 | -61.31803 | 35787 ft | 396 kts | 257° |
| 2026-05-06 16:40 | -30.47787 | -61.37822 | 35792 ft | 396 kts | 257° |
| 2026-05-06 16:40 | -30.49648 | -61.43846 | 35788 ft | 396 kts | 257° |
| 2026-05-06 16:41 | -30.51504 | -61.49860 | 35781 ft | 396 kts | 257° |
| 2026-05-06 16:41 | -30.53361 | -61.55875 | 35782 ft | 396 kts | 257° |
| 2026-05-06 16:42 | -30.55211 | -61.61849 | 35778 ft | 396 kts | 257° |
| 2026-05-06 16:42 | -30.57068 | -61.67866 | 35780 ft | 396 kts | 257° |
| 2026-05-06 16:43 | -30.58911 | -61.73895 | 35771 ft | 396 kts | 257° |
| 2026-05-06 16:43 | -30.60748 | -61.79931 | 35771 ft | 396 kts | 257° |
| 2026-05-06 16:44 | -30.62572 | -61.85932 | 35776 ft | 396 kts | 257° |
| 2026-05-06 16:44 | -30.64407 | -61.91978 | 35774 ft | 396 kts | 257° |
| 2026-05-06 16:45 | -30.66239 | -61.98029 | 35782 ft | 397 kts | 258° |
| 2026-05-06 16:45 | -30.68060 | -62.04051 | 35772 ft | 397 kts | 258° |
| 2026-05-06 16:46 | -30.69888 | -62.10105 | 35773 ft | 397 kts | 258° |
| 2026-05-06 16:46 | -30.71710 | -62.16155 | 35774 ft | 396 kts | 258° |
| 2026-05-06 16:47 | -30.73529 | -62.22207 | 35763 ft | 396 kts | 258° |
| 2026-05-06 16:47 | -30.75347 | -62.28265 | 35776 ft | 396 kts | 258° |
| 2026-05-06 16:48 | -30.77149 | -62.34281 | 35768 ft | 396 kts | 258° |
| 2026-05-06 16:48 | -30.78959 | -62.40327 | 35770 ft | 396 kts | 258° |
| 2026-05-06 16:49 | -30.80778 | -62.46385 | 35773 ft | 395 kts | 258° |
| 2026-05-06 16:49 | -30.82576 | -62.52382 | 35769 ft | 395 kts | 258° |
| 2026-05-06 16:50 | -30.84385 | -62.58431 | 35771 ft | 396 kts | 258° |
| 2026-05-06 16:50 | -30.86194 | -62.64494 | 35767 ft | 396 kts | 258° |
| 2026-05-06 16:51 | -30.87996 | -62.70546 | 35769 ft | 396 kts | 258° |
| 2026-05-06 16:51 | -30.89797 | -62.76603 | 35767 ft | 396 kts | 258° |
| 2026-05-06 16:52 | -30.91599 | -62.82678 | 35768 ft | 396 kts | 258° |
| 2026-05-06 16:52 | -30.93389 | -62.88726 | 35774 ft | 397 kts | 258° |
| 2026-05-06 16:53 | -30.95188 | -62.94811 | 35765 ft | 397 kts | 258° |
| 2026-05-06 16:53 | -30.96986 | -63.00909 | 35759 ft | 397 kts | 258° |
| 2026-05-06 16:54 | -30.98778 | -63.06996 | 35763 ft | 397 kts | 258° |
| 2026-05-06 16:54 | -31.00559 | -63.13058 | 35767 ft | 397 kts | 258° |
| 2026-05-06 16:55 | -31.02348 | -63.19159 | 35755 ft | 397 kts | 258° |
| 2026-05-06 16:55 | -31.04116 | -63.25234 | 35754 ft | 397 kts | 259° |
| 2026-05-06 16:56 | -31.05887 | -63.31350 | 35754 ft | 398 kts | 259° |
| 2026-05-06 16:56 | -31.07658 | -63.37472 | 35745 ft | 398 kts | 259° |
| 2026-05-06 16:57 | -31.09425 | -63.43593 | 35759 ft | 398 kts | 259° |
| 2026-05-06 16:57 | -31.11192 | -63.49726 | 35741 ft | 399 kts | 259° |
| 2026-05-06 16:58 | -31.12958 | -63.55867 | 35745 ft | 400 kts | 259° |
| 2026-05-06 16:58 | -31.14714 | -63.61986 | 35739 ft | 400 kts | 259° |
| 2026-05-06 16:59 | -31.16483 | -63.68161 | 35739 ft | 400 kts | 259° |
| 2026-05-06 16:59 | -31.18245 | -63.74327 | 35746 ft | 400 kts | 259° |
| 2026-05-06 17:00 | -31.20008 | -63.80506 | 35736 ft | 401 kts | 259° |
| 2026-05-06 17:00 | -31.21767 | -63.86682 | 35744 ft | 401 kts | 259° |
| 2026-05-06 17:01 | -31.23524 | -63.92869 | 35753 ft | 400 kts | 259° |
| 2026-05-06 17:01 | -31.25263 | -63.99003 | 35759 ft | 400 kts | 259° |
| 2026-05-06 17:02 | -31.27012 | -64.05184 | 35791 ft | 400 kts | 259° |
| 2026-05-06 17:02 | -31.28757 | -64.11366 | 35771 ft | 400 kts | 260° |
| 2026-05-06 17:03 | -31.30506 | -64.17571 | 35775 ft | 400 kts | 260° |
| 2026-05-06 17:03 | -31.32427 | -64.23674 | 35774 ft | 404 kts | 256° |
| 2026-05-06 17:04 | -31.34588 | -64.29741 | 35776 ft | 404 kts | 256° |
| 2026-05-06 17:04 | -31.36754 | -64.35815 | 35771 ft | 404 kts | 256° |
| 2026-05-06 17:05 | -31.38907 | -64.41897 | 35768 ft | 405 kts | 256° |
| 2026-05-06 17:05 | -31.41059 | -64.47999 | 35763 ft | 405 kts | 256° |
| 2026-05-06 17:06 | -31.43191 | -64.54059 | 35775 ft | 405 kts | 256° |
| 2026-05-06 17:06 | -31.45331 | -64.60152 | 35765 ft | 404 kts | 256° |
| 2026-05-06 17:07 | -31.47461 | -64.66229 | 35784 ft | 402 kts | 256° |
| 2026-05-06 17:07 | -31.49222 | -64.71257 | 35778 ft | 401 kts | 256° |
| 2026-05-06 17:08 | -31.51335 | -64.77309 | 35794 ft | 402 kts | 256° |
| 2026-05-06 17:08 | -31.53454 | -64.83393 | 35800 ft | 403 kts | 256° |
| 2026-05-06 17:09 | -31.55577 | -64.89491 | 35801 ft | 405 kts | 256° |
| 2026-05-06 17:09 | -31.57705 | -64.95616 | 35804 ft | 406 kts | 257° |
| 2026-05-06 17:10 | -31.59831 | -65.01738 | 35797 ft | 402 kts | 257° |
| 2026-05-06 17:10 | -31.61919 | -65.07765 | 35792 ft | 397 kts | 257° |
| 2026-05-06 17:11 | -31.63978 | -65.13732 | 35782 ft | 396 kts | 257° |
| 2026-05-06 17:11 | -31.66045 | -65.19725 | 35787 ft | 396 kts | 257° |
| 2026-05-06 17:12 | -31.68113 | -65.25722 | 35775 ft | 397 kts | 257° |
| 2026-05-06 17:12 | -31.70191 | -65.31756 | 35778 ft | 400 kts | 257° |
| 2026-05-06 17:13 | -31.72278 | -65.37826 | 35740 ft | 401 kts | 257° |
| 2026-05-06 17:13 | -31.74371 | -65.43924 | 35743 ft | 403 kts | 257° |
| 2026-05-06 17:14 | -31.76464 | -65.50033 | 35724 ft | 403 kts | 257° |
| 2026-05-06 17:14 | -31.78542 | -65.56107 | 35720 ft | 403 kts | 257° |
| 2026-05-06 17:15 | -31.80631 | -65.62226 | 35750 ft | 402 kts | 257° |
| 2026-05-06 17:15 | -31.82711 | -65.68332 | 35723 ft | 402 kts | 257° |
| 2026-05-06 17:16 | -31.84790 | -65.74446 | 35704 ft | 401 kts | 257° |
| 2026-05-06 17:16 | -31.86856 | -65.80534 | 35703 ft | 401 kts | 257° |
| 2026-05-06 17:17 | -31.88922 | -65.86633 | 35705 ft | 400 kts | 257° |
| 2026-05-06 17:17 | -31.90964 | -65.92674 | 35700 ft | 400 kts | 257° |
| 2026-05-06 17:18 | -31.93018 | -65.98759 | 35707 ft | 400 kts | 257° |
| 2026-05-06 17:18 | -31.95060 | -66.04853 | 35700 ft | 399 kts | 258° |
| 2026-05-06 17:19 | -31.97089 | -66.10948 | 35687 ft | 399 kts | 258° |
| 2026-05-06 17:19 | -31.99108 | -66.17026 | 35686 ft | 398 kts | 258° |
| 2026-05-06 17:20 | -32.01124 | -66.23100 | 35704 ft | 398 kts | 258° |
| 2026-05-06 17:20 | -32.03128 | -66.29151 | 35701 ft | 399 kts | 258° |
| 2026-05-06 17:21 | -32.05140 | -66.35234 | 35693 ft | 398 kts | 258° |
| 2026-05-06 17:21 | -32.07146 | -66.41312 | 35689 ft | 397 kts | 258° |
| 2026-05-06 17:22 | -32.09149 | -66.47392 | 35689 ft | 397 kts | 258° |
| 2026-05-06 17:22 | -32.10980 | -66.53498 | 35688 ft | 391 kts | 262° |
| 2026-05-06 17:23 | -32.12449 | -66.59686 | 35695 ft | 392 kts | 262° |
| 2026-05-06 17:23 | -32.13917 | -66.65897 | 35686 ft | 393 kts | 262° |
| 2026-05-06 17:24 | -32.15385 | -66.72088 | 35690 ft | 395 kts | 262° |
| 2026-05-06 17:24 | -32.16865 | -66.78331 | 35683 ft | 395 kts | 262° |
| 2026-05-06 17:25 | -32.18346 | -66.84587 | 35684 ft | 396 kts | 262° |
| 2026-05-06 17:25 | -32.19825 | -66.90848 | 35724 ft | 397 kts | 262° |
| 2026-05-06 17:26 | -32.21308 | -66.97145 | 35695 ft | 398 kts | 262° |
| 2026-05-06 17:26 | -32.22792 | -67.03459 | 35689 ft | 399 kts | 262° |
| 2026-05-06 17:27 | -32.24276 | -67.09786 | 35687 ft | 400 kts | 262° |
| 2026-05-06 17:27 | -32.25758 | -67.16122 | 35678 ft | 400 kts | 262° |
| 2026-05-06 17:28 | -32.27229 | -67.22421 | 35723 ft | 400 kts | 261° |
| 2026-05-06 17:28 | -32.28706 | -67.28768 | 35691 ft | 400 kts | 261° |
| 2026-05-06 17:29 | -32.30177 | -67.35100 | 35686 ft | 399 kts | 261° |
| 2026-05-06 17:29 | -32.31642 | -67.41425 | 35683 ft | 398 kts | 261° |
| 2026-05-06 17:30 | -32.33099 | -67.47729 | 35684 ft | 397 kts | 261° |
| 2026-05-06 17:30 | -32.34549 | -67.54025 | 35684 ft | 397 kts | 261° |
| 2026-05-06 17:31 | -32.35997 | -67.60325 | 35692 ft | 397 kts | 261° |
| 2026-05-06 17:31 | -32.37434 | -67.66589 | 35681 ft | 396 kts | 261° |
| 2026-05-06 17:32 | -32.38872 | -67.72877 | 35684 ft | 396 kts | 261° |
| 2026-05-06 17:32 | -32.40307 | -67.79165 | 35681 ft | 396 kts | 262° |
| 2026-05-06 17:33 | -32.41737 | -67.85448 | 35686 ft | 395 kts | 262° |
| 2026-05-06 17:33 | -32.43164 | -67.91735 | 35689 ft | 395 kts | 262° |
| 2026-05-06 17:34 | -32.44589 | -67.98029 | 35690 ft | 396 kts | 262° |
| 2026-05-06 17:34 | -32.46012 | -68.04327 | 35685 ft | 396 kts | 262° |
| 2026-05-06 17:35 | -32.47434 | -68.10638 | 35685 ft | 396 kts | 262° |
| 2026-05-06 17:35 | -32.48852 | -68.16949 | 35684 ft | 397 kts | 262° |
| 2026-05-06 17:36 | -32.50966 | -68.26384 | 35692 ft | 396 kts | 262° |
| 2026-05-06 17:36 | -32.52372 | -68.32673 | 35680 ft | 394 kts | 262° |
| 2026-05-06 17:37 | -32.53767 | -68.38943 | 35680 ft | 392 kts | 262° |
| 2026-05-06 17:37 | -32.55149 | -68.45184 | 35681 ft | 391 kts | 262° |
| 2026-05-06 17:38 | -32.56527 | -68.51426 | 35685 ft | 391 kts | 262° |
| 2026-05-06 17:38 | -32.57891 | -68.57628 | 35705 ft | 392 kts | 262° |
| 2026-05-06 17:39 | -32.59263 | -68.63873 | 35713 ft | 391 kts | 262° |
| 2026-05-06 17:39 | -32.60634 | -68.70125 | 35726 ft | 391 kts | 262° |
| 2026-05-06 17:40 | -32.62001 | -68.76380 | 35732 ft | 391 kts | 262° |
| 2026-05-06 17:40 | -32.63365 | -68.82642 | 35745 ft | 393 kts | 261° |
| 2026-05-06 17:41 | -32.64733 | -68.88931 | 35778 ft | 395 kts | 261° |
| 2026-05-06 17:41 | -32.66106 | -68.95264 | 35752 ft | 397 kts | 261° |
| 2026-05-06 17:42 | -32.67469 | -69.01579 | 35762 ft | 397 kts | 261° |
| 2026-05-06 17:42 | -32.68845 | -69.07954 | 35756 ft | 399 kts | 261° |
| 2026-05-06 17:43 | -32.70222 | -69.14357 | 35767 ft | 399 kts | 261° |
| 2026-05-06 17:43 | -32.70900 | -69.17502 | 35757 ft | 388 kts | 261° |
| 2026-05-06 17:43 | -32.71559 | -69.20539 | 35837 ft | 373 kts | 262° |
| 2026-05-06 17:44 | -32.72830 | -69.26463 | 35867 ft | 370 kts | 262° |
| 2026-05-06 17:44 | -32.74076 | -69.32301 | 35529 ft | 360 kts | 262° |
| 2026-05-06 17:45 | -32.74687 | -69.35165 | 35138 ft | 355 kts | 262° |
| 2026-05-06 17:45 | -32.75288 | -69.37986 | 34813 ft | 350 kts | 263° |
| 2026-05-06 17:45 | -32.75884 | -69.40793 | 34499 ft | 349 kts | 263° |
| 2026-05-06 17:45 | -32.76476 | -69.43588 | 34232 ft | 348 kts | 263° |
| 2026-05-06 17:46 | -32.77063 | -69.46366 | 33719 ft | 345 kts | 263° |
| 2026-05-06 17:46 | -32.77637 | -69.49071 | 33255 ft | 339 kts | 263° |
| 2026-05-06 17:46 | -32.78210 | -69.51776 | 32741 ft | 337 kts | 263° |
| 2026-05-06 17:46 | -32.78777 | -69.54465 | 32386 ft | 334 kts | 263° |
| 2026-05-06 17:47 | -32.79339 | -69.57138 | 31843 ft | 332 kts | 263° |
| 2026-05-06 17:47 | -32.79899 | -69.59786 | 31327 ft | 329 kts | 263° |
| 2026-05-06 17:47 | -32.80454 | -69.62416 | 30881 ft | 327 kts | 262° |
| 2026-05-06 17:47 | -32.81004 | -69.65031 | 30391 ft | 325 kts | 262° |
| 2026-05-06 17:48 | -32.81551 | -69.67637 | 29955 ft | 323 kts | 262° |
| 2026-05-06 17:48 | -32.82091 | -69.70220 | 29371 ft | 320 kts | 262° |
| 2026-05-06 17:48 | -32.82623 | -69.72759 | 28914 ft | 313 kts | 262° |
| 2026-05-06 17:48 | -32.83147 | -69.75260 | 28426 ft | 310 kts | 262° |
| 2026-05-06 17:49 | -32.83668 | -69.77730 | 28003 ft | 306 kts | 262° |
| 2026-05-06 17:49 | -32.84181 | -69.80172 | 27552 ft | 301 kts | 262° |
| 2026-05-06 17:49 | -32.84680 | -69.82572 | 27135 ft | 299 kts | 261° |
| 2026-05-06 17:49 | -32.85177 | -69.84959 | 26665 ft | 296 kts | 261° |
| 2026-05-06 17:50 | -32.85667 | -69.87315 | 26224 ft | 291 kts | 261° |
| 2026-05-06 17:50 | -32.86145 | -69.89615 | 25830 ft | 290 kts | 261° |
| 2026-05-06 17:50 | -32.86629 | -69.91940 | 25405 ft | 288 kts | 261° |
| 2026-05-06 17:50 | -32.87108 | -69.94252 | 25026 ft | 286 kts | 260° |
| 2026-05-06 17:51 | -32.87581 | -69.96528 | 24669 ft | 283 kts | 260° |
| 2026-05-06 17:51 | -32.88047 | -69.98809 | 24213 ft | 282 kts | 262° |
| 2026-05-06 17:51 | -32.88221 | -70.01103 | 23814 ft | 276 kts | 273° |
| 2026-05-06 17:51 | -32.88053 | -70.03427 | 23415 ft | 292 kts | 275° |
| 2026-05-06 17:52 | -32.87825 | -70.05861 | 22886 ft | 297 kts | 275° |
| 2026-05-06 17:52 | -32.87584 | -70.08291 | 22481 ft | 295 kts | 276° |
| 2026-05-06 17:52 | -32.87352 | -70.10713 | 22094 ft | 294 kts | 276° |
| 2026-05-06 17:52 | -32.87123 | -70.13135 | 21654 ft | 295 kts | 276° |
| 2026-05-06 17:53 | -32.86898 | -70.15535 | 21223 ft | 296 kts | 275° |
| 2026-05-06 17:53 | -32.86674 | -70.17961 | 20799 ft | 295 kts | 276° |
| 2026-05-06 17:53 | -32.86448 | -70.20379 | 20309 ft | 293 kts | 275° |
| 2026-05-06 17:53 | -32.86230 | -70.22785 | 19972 ft | 293 kts | 276° |
| 2026-05-06 17:54 | -32.86008 | -70.25212 | 19550 ft | 296 kts | 276° |
| 2026-05-06 17:54 | -32.85856 | -70.26865 | 19298 ft | 298 kts | 276° |
| 2026-05-06 17:54 | -32.85556 | -70.30116 | 18711 ft | 298 kts | 276° |
| 2026-05-06 17:54 | -32.85331 | -70.32558 | 18291 ft | 299 kts | 277° |
| 2026-05-06 17:55 | -32.85181 | -70.34189 | 17932 ft | 301 kts | 277° |
| 2026-05-06 17:55 | -32.84950 | -70.36679 | 17361 ft | 304 kts | 277° |
| 2026-05-06 17:55 | -32.84713 | -70.39195 | 16798 ft | 307 kts | 276° |
| 2026-05-06 17:55 | -32.84476 | -70.41721 | 16261 ft | 307 kts | 277° |
| 2026-05-06 17:56 | -32.84239 | -70.44261 | 15703 ft | 310 kts | 277° |
| 2026-05-06 17:56 | -32.84000 | -70.46813 | 15176 ft | 312 kts | 277° |
| 2026-05-06 17:56 | -32.83757 | -70.49390 | 14614 ft | 315 kts | 277° |
| 2026-05-06 17:56 | -32.83511 | -70.52000 | 14095 ft | 317 kts | 277° |
| 2026-05-06 17:57 | -32.83274 | -70.54521 | 13701 ft | 296 kts | 277° |
| 2026-05-06 17:57 | -32.83047 | -70.56920 | 13371 ft | 294 kts | 277° |
| 2026-05-06 17:57 | -32.82814 | -70.59367 | 13031 ft | 299 kts | 278° |
| 2026-05-06 17:57 | -32.82581 | -70.61819 | 12683 ft | 298 kts | 278° |
| 2026-05-06 17:58 | -32.82352 | -70.64223 | 12359 ft | 294 kts | 278° |
| 2026-05-06 17:58 | -32.82123 | -70.66626 | 12032 ft | 289 kts | 277° |
| 2026-05-06 17:58 | -32.82242 | -70.68971 | 11682 ft | 282 kts | 256° |
| 2026-05-06 17:58 | -32.83046 | -70.71069 | 11384 ft | 281 kts | 242° |
| 2026-05-06 17:59 | -32.84311 | -70.72870 | 11029 ft | 286 kts | 229° |
| 2026-05-06 17:59 | -32.85783 | -70.74463 | 10716 ft | 287 kts | 226° |
| 2026-05-06 17:59 | -32.87273 | -70.76041 | 10367 ft | 286 kts | 227° |
| 2026-05-06 17:59 | -32.88713 | -70.77591 | 10059 ft | 273 kts | 227° |
| 2026-05-06 18:00 | -32.90108 | -70.79113 | 9748 ft | 270 kts | 228° |
| 2026-05-06 18:00 | -32.91520 | -70.80604 | 9414 ft | 272 kts | 219° |
| 2026-05-06 18:00 | -32.93315 | -70.81391 | 9097 ft | 280 kts | 191° |
| 2026-05-06 18:00 | -32.95245 | -70.81636 | 8813 ft | 285 kts | 190° |
| 2026-05-06 18:01 | -32.97234 | -70.81920 | 8507 ft | 290 kts | 191° |
| 2026-05-06 18:01 | -32.99252 | -70.82221 | 8160 ft | 294 kts | 191° |
| 2026-05-06 18:01 | -33.01257 | -70.82451 | 7798 ft | 284 kts | 185° |
| 2026-05-06 18:01 | -33.03228 | -70.82370 | 7490 ft | 283 kts | 180° |
| 2026-05-06 18:02 | -33.05192 | -70.82217 | 7209 ft | 283 kts | 180° |
| 2026-05-06 18:02 | -33.07158 | -70.82066 | 6899 ft | 283 kts | 180° |
| 2026-05-06 18:02 | -33.09128 | -70.81932 | 6588 ft | 283 kts | 180° |
| 2026-05-06 18:02 | -33.11101 | -70.81806 | 6267 ft | 284 kts | 181° |
| 2026-05-06 18:03 | -33.13020 | -70.81689 | 5913 ft | 268 kts | 181° |
| 2026-05-06 18:03 | -33.14834 | -70.81580 | 5607 ft | 253 kts | 180° |
| 2026-05-06 18:03 | -33.16523 | -70.81472 | 5384 ft | 233 kts | 181° |
| 2026-05-06 18:03 | -33.18122 | -70.81385 | 5119 ft | 227 kts | 182° |
| 2026-05-06 18:04 | -33.19685 | -70.81305 | 4867 ft | 224 kts | 181° |
| 2026-05-06 18:04 | -33.21215 | -70.81222 | 4627 ft | 223 kts | 180° |
| 2026-05-06 18:04 | -33.22761 | -70.81139 | 4353 ft | 220 kts | 180° |
| 2026-05-06 18:04 | -33.24252 | -70.81059 | 4091 ft | 209 kts | 180° |
| 2026-05-06 18:05 | -33.25680 | -70.80984 | 3833 ft | 202 kts | 178° |
| 2026-05-06 18:05 | -33.27059 | -70.80913 | 3585 ft | 194 kts | 178° |
| 2026-05-06 18:05 | -33.28381 | -70.80844 | 3295 ft | 184 kts | 178° |
| 2026-05-06 18:05 | -33.29606 | -70.80774 | 3067 ft | 169 kts | 177° |
| 2026-05-06 18:06 | -33.30720 | -70.80717 | 2851 ft | 152 kts | 178° |
| 2026-05-06 18:06 | -33.31769 | -70.80663 | 2711 ft | 152 kts | 178° |
| 2026-05-06 18:06 | -33.32825 | -70.80607 | 2497 ft | 150 kts | 180° |
| 2026-05-06 18:06 | -33.33849 | -70.80550 | 2248 ft | 144 kts | 178° |
| 2026-05-06 18:07 | -33.34824 | -70.80502 | 2023 ft | 137 kts | 176° |
| 2026-05-06 18:07 | -33.35756 | -70.80456 | 1836 ft | 133 kts | 174° |
| 2026-05-06 18:07 | -33.36656 | -70.80414 | 1683 ft | 130 kts | 171° |
| 2026-05-06 18:07 | -33.37573 | -70.80355 | 1591 ft | 130 kts | 171° |
| 2026-05-06 18:08 | -33.38375 | -70.80310 | 1578 ft | 94 kts | 179° |
| 2026-05-06 18:08 | -33.38844 | -70.80284 | 1579 ft | 48 kts | 178° |
| 2026-05-06 18:08 | -33.39092 | -70.80270 | 1578 ft | 19 kts | 175° |
| 2026-05-06 18:08 | -33.39222 | -70.80250 | 1577 ft | 18 kts | 166° |
| 2026-05-06 18:09 | -33.39322 | -70.80205 | 1576 ft | 12 kts | 150° |
| 2026-05-06 18:09 | -33.39390 | -70.80156 | 1574 ft | 12 kts | 148° |
| 2026-05-06 18:09 | -33.39463 | -70.80098 | 1572 ft | 10 kts | 144° |
| 2026-05-06 18:09 | -33.39523 | -70.80054 | 1571 ft | 10 kts | 163° |
| 2026-05-06 18:10 | -33.39604 | -70.80040 | 1571 ft | 13 kts | 174° |
| 2026-05-06 18:10 | -33.39707 | -70.80037 | 1571 ft | 16 kts | 177° |
| 2026-05-06 18:10 | -33.39782 | -70.80031 | 1571 ft | 7 kts | 174° |
| 2026-05-06 18:10 | -33.39788 | -70.80030 | 1571 ft | 0 kts | 174° |
| 2026-05-06 18:11 | -33.39812 | -70.80027 | 1571 ft | 8 kts | 173° |
| 2026-05-06 18:12 | -33.39844 | -70.79989 | 1571 ft | 7 kts | 102° |
| 2026-05-06 18:12 | -33.39845 | -70.79932 | 1570 ft | 7 kts | 90° |
| 2026-05-06 18:12 | -33.39843 | -70.79870 | 1570 ft | 8 kts | 88° |
| 2026-05-06 18:12 | -33.39848 | -70.79820 | 1570 ft | 5 kts | 122° |
| 2026-05-06 18:13 | -33.39881 | -70.79806 | 1569 ft | 5 kts | 171° |
| 2026-05-06 18:13 | -33.39905 | -70.79803 | 1569 ft | 3 kts | 175° |
| 2026-05-06 18:13 | -33.39920 | -70.79802 | 1569 ft | 1 kts | 176° |
| 2026-05-06 18:13 | -33.39923 | -70.79802 | 1569 ft | 0 kts | 176° |
| 2026-05-06 18:14 | -33.39924 | -70.79802 | 1569 ft | 0 kts | 176° |